createdAt,value
2019-01-25T00:03:29.817Z,28.00
2019-01-25T00:06:10.934Z,26.73
2019-01-25T00:08:54.858Z,27.93
2019-01-25T00:11:35.514Z,26.93
2019-01-25T00:14:16.284Z,28.50
2019-01-25T00:16:56.872Z,25.33
2019-01-25T00:19:37.467Z,26.23
2019-01-25T00:22:18.151Z,27.53
2019-01-25T00:24:58.718Z,28.27
2019-01-25T00:27:39.747Z,26.60
2019-01-25T00:30:20.225Z,27.47
2019-01-25T00:33:01.173Z,26.63
2019-01-25T00:35:42.183Z,26.43
2019-01-25T00:38:22.696Z,26.30
2019-01-25T00:41:03.280Z,25.40
2019-01-25T00:43:43.784Z,25.83
2019-01-25T00:46:24.589Z,26.90
2019-01-25T00:49:04.972Z,26.83
2019-01-25T00:51:45.673Z,25.93
2019-01-25T00:54:26.865Z,26.77
2019-01-25T00:57:07.392Z,26.53
2019-01-25T00:59:48.133Z,26.07
2019-01-25T01:02:28.457Z,26.30
2019-01-25T01:05:09.233Z,26.37
2019-01-25T01:07:51.479Z,27.17
2019-01-25T01:10:31.885Z,25.70
2019-01-25T01:13:12.268Z,26.13
2019-01-25T01:15:53.495Z,25.83
2019-01-25T01:18:34.112Z,26.97
2019-01-25T01:21:14.687Z,26.87
2019-01-25T01:23:55.205Z,25.60
2019-01-25T01:26:35.660Z,26.40
2019-01-25T01:29:16.585Z,26.00
2019-01-25T01:31:57.415Z,26.63
2019-01-25T01:34:38.158Z,26.27
2019-01-25T01:37:19.096Z,27.13
2019-01-25T01:40:00.033Z,26.97
2019-01-25T01:42:40.728Z,28.00
2019-01-25T01:45:21.435Z,26.80
2019-01-25T01:48:02.325Z,26.10
2019-01-25T01:50:43.164Z,25.77
2019-01-25T01:53:24.090Z,25.47
2019-01-25T01:56:04.525Z,26.20
2019-01-25T01:58:45.142Z,26.47
2019-01-25T02:01:25.776Z,28.30
2019-01-25T02:04:06.493Z,27.83
2019-01-25T02:06:47.749Z,26.43
2019-01-25T02:09:28.192Z,28.60
2019-01-25T02:12:09.062Z,26.73
2019-01-25T02:14:49.720Z,27.43
2019-01-25T02:17:30.237Z,27.00
2019-01-25T02:20:10.564Z,27.33
2019-01-25T02:22:51.220Z,26.90
2019-01-25T02:25:31.881Z,26.93
2019-01-25T02:28:12.252Z,25.30
2019-01-25T02:30:53.189Z,26.50
2019-01-25T02:33:34.224Z,28.27
2019-01-25T02:36:15.101Z,27.37
2019-01-25T02:38:55.636Z,24.87
2019-01-25T02:41:36.165Z,26.97
2019-01-25T02:44:16.895Z,27.37
2019-01-25T02:46:57.566Z,28.27
2019-01-25T02:49:38.684Z,27.40
2019-01-25T02:52:19.069Z,27.97
2019-01-25T02:54:59.794Z,27.63
2019-01-25T02:57:40.405Z,28.10
2019-01-25T03:00:20.965Z,25.87
2019-01-25T03:03:01.694Z,26.30
2019-01-25T03:05:42.417Z,26.47
2019-01-25T03:08:22.962Z,27.33
2019-01-25T03:11:03.286Z,25.97
2019-01-25T03:13:43.831Z,27.33
2019-01-25T03:16:24.248Z,26.33
2019-01-25T03:19:05.284Z,27.70
2019-01-25T03:21:46.609Z,28.57
2019-01-25T03:24:27.425Z,26.93
2019-01-25T03:27:08.233Z,26.47
2019-01-25T03:29:48.980Z,27.37
2019-01-25T03:32:29.575Z,27.03
2019-01-25T03:35:10.179Z,26.73
2019-01-25T03:37:51.155Z,28.03
2019-01-25T03:40:31.725Z,26.97
2019-01-25T03:43:12.284Z,26.83
2019-01-25T03:45:53.204Z,27.20
2019-01-25T03:48:33.766Z,28.53
2019-01-25T03:51:14.788Z,28.00
2019-01-25T03:53:55.321Z,27.07
2019-01-25T03:56:38.098Z,28.83
2019-01-25T03:59:18.633Z,27.33
2019-01-25T04:01:59.315Z,27.30
2019-01-25T04:04:39.913Z,27.47
2019-01-25T04:07:20.423Z,28.77
2019-01-25T04:10:01.031Z,28.40
2019-01-25T04:12:41.773Z,28.70
2019-01-25T04:15:22.721Z,27.73
2019-01-25T04:18:03.589Z,28.57
2019-01-25T04:20:44.588Z,28.63
2019-01-25T04:23:25.766Z,27.97
2019-01-25T04:26:06.549Z,28.23
2019-01-25T04:28:46.756Z,26.83
2019-01-25T04:31:27.566Z,26.40
2019-01-25T04:34:08.054Z,27.07
2019-01-25T04:36:49.120Z,27.07
2019-01-25T04:39:30.381Z,26.93
2019-01-25T04:42:10.914Z,26.17
2019-01-25T04:44:51.990Z,26.63
2019-01-25T04:47:32.473Z,26.53
2019-01-25T04:50:13.488Z,27.43
2019-01-25T04:52:54.084Z,27.17
2019-01-25T04:55:34.872Z,26.77
2019-01-25T04:58:15.887Z,26.47
2019-01-25T05:00:56.198Z,26.77
2019-01-25T05:03:37.701Z,27.83
2019-01-25T05:06:18.213Z,27.80
2019-01-25T05:08:58.729Z,26.90
2019-01-25T05:11:39.039Z,25.77
2019-01-25T05:14:19.773Z,25.27
2019-01-25T05:17:00.582Z,27.70
2019-01-25T05:19:41.432Z,26.07
2019-01-25T05:22:22.457Z,29.47
2019-01-25T05:25:03.181Z,28.20
2019-01-25T05:27:43.967Z,27.00
2019-01-25T05:30:25.107Z,27.00
2019-01-25T05:33:05.483Z,26.70
2019-01-25T05:35:46.274Z,28.30
2019-01-25T05:38:27.005Z,28.17
2019-01-25T05:41:07.457Z,28.23
2019-01-25T05:43:48.494Z,27.67
2019-01-25T05:46:31.796Z,26.40
2019-01-25T05:49:12.476Z,27.17
2019-01-25T05:51:52.944Z,26.73
2019-01-25T05:54:33.664Z,25.80
2019-01-25T05:57:14.484Z,27.73
2019-01-25T05:59:55.092Z,27.67
2019-01-25T06:02:35.445Z,28.23
2019-01-25T06:05:16.200Z,27.77
2019-01-25T06:07:56.883Z,26.17
2019-01-25T06:10:37.799Z,29.00
2019-01-25T06:13:18.284Z,30.30
2019-01-25T06:15:58.942Z,27.97
2019-01-25T06:18:39.828Z,28.33
2019-01-25T06:21:20.803Z,27.53
2019-01-25T06:24:01.560Z,28.97
2019-01-25T06:26:43.583Z,29.83
2019-01-25T06:29:24.938Z,27.33
2019-01-25T06:32:05.492Z,28.10
2019-01-25T06:34:46.174Z,28.50
2019-01-25T06:37:27.230Z,28.17
2019-01-25T06:40:07.993Z,27.50
2019-01-25T06:42:49.169Z,28.47
2019-01-25T06:45:29.985Z,28.87
2019-01-25T06:48:11.021Z,29.20
2019-01-25T06:50:52.379Z,29.90
2019-01-25T06:53:33.549Z,29.73
2019-01-25T06:56:14.540Z,28.33
2019-01-25T06:58:59.521Z,29.53
2019-01-25T07:01:44.794Z,31.20
2019-01-25T07:04:25.927Z,29.67
2019-01-25T07:07:08.235Z,29.87
2019-01-25T07:09:48.426Z,29.43
2019-01-25T07:12:29.005Z,29.87
2019-01-25T07:15:09.533Z,29.33
2019-01-25T07:17:50.575Z,29.73
2019-01-25T07:20:31.170Z,30.47
2019-01-25T07:23:12.238Z,28.10
2019-01-25T07:25:52.927Z,30.57
2019-01-25T07:28:33.799Z,29.20
2019-01-25T07:31:14.917Z,30.30
2019-01-25T07:33:55.218Z,29.17
2019-01-25T07:36:36.065Z,28.67
2019-01-25T07:39:17.155Z,29.53
2019-01-25T07:41:59.599Z,28.87
2019-01-25T07:44:41.129Z,29.57
2019-01-25T07:47:22.549Z,28.93
2019-01-25T07:50:03.177Z,29.10
2019-01-25T07:52:43.857Z,30.03
2019-01-25T07:55:24.393Z,29.47
2019-01-25T07:58:05.775Z,29.37
2019-01-25T08:00:46.297Z,30.83
2019-01-25T08:03:27.460Z,28.70
2019-01-25T08:06:08.669Z,30.67
2019-01-25T08:08:50.031Z,29.70
2019-01-25T08:11:18.454Z,30.40
2019-01-25T08:14:06.469Z,31.47
2019-01-25T08:16:54.227Z,29.23
2019-01-25T08:19:42.063Z,30.87
2019-01-25T08:22:30.112Z,31.43
2019-01-25T08:25:17.918Z,29.50
2019-01-25T08:28:05.737Z,31.83
2019-01-25T08:30:53.626Z,30.23
2019-01-25T08:33:41.431Z,31.33
2019-01-25T08:36:29.212Z,32.57
2019-01-25T08:39:17.230Z,29.60
2019-01-25T08:42:05.357Z,31.60
2019-01-25T08:44:53.105Z,32.93
2019-01-25T08:47:40.870Z,31.67
2019-01-25T08:50:28.667Z,31.50
2019-01-25T08:53:16.728Z,31.37
2019-01-25T08:56:04.621Z,31.70
2019-01-25T08:58:52.431Z,31.67
2019-01-25T09:01:40.449Z,29.93
2019-01-25T09:04:28.199Z,42.97
2019-01-25T09:07:15.972Z,32.90
2019-01-25T09:09:57.150Z,29.77
2019-01-25T09:12:38.200Z,32.63
2019-01-25T09:15:19.304Z,31.93
2019-01-25T09:18:00.326Z,31.27
2019-01-25T09:20:41.109Z,27.10
2019-01-25T09:23:21.849Z,25.90
2019-01-25T09:26:02.952Z,25.27
2019-01-25T09:28:43.270Z,23.23
2019-01-25T09:31:23.865Z,25.97
2019-01-25T09:34:04.452Z,23.07
2019-01-25T09:36:45.444Z,22.53
2019-01-25T09:39:26.248Z,23.40
2019-01-25T09:42:07.236Z,20.47
2019-01-25T09:44:48.002Z,24.03
2019-01-25T09:47:28.994Z,21.97
2019-01-25T09:50:09.756Z,21.93
2019-01-25T09:52:50.649Z,23.47
2019-01-25T09:55:59.142Z,22.73
2019-01-25T09:58:47.073Z,21.40
2019-01-25T10:01:34.840Z,21.17
2019-01-25T10:04:22.609Z,21.90
2019-01-25T10:07:10.365Z,22.00
2019-01-25T10:09:58.213Z,21.30
2019-01-25T10:12:45.975Z,21.23
2019-01-25T10:15:33.724Z,22.33
2019-01-25T10:18:24.856Z,21.23
2019-01-25T10:21:11.004Z,21.47
2019-01-25T10:23:58.763Z,22.27
2019-01-25T10:26:46.513Z,21.23
2019-01-25T10:29:34.336Z,21.57
2019-01-25T10:32:22.109Z,21.87
2019-01-25T10:35:10.541Z,21.43
2019-01-25T10:37:58.557Z,20.87
2019-01-25T10:43:55.094Z,19.77
2019-01-25T10:46:42.850Z,21.27
2019-01-25T10:49:30.685Z,21.10
2019-01-25T10:51:59.141Z,21.17
2019-01-25T10:54:47.241Z,21.10
2019-01-25T10:57:28.170Z,21.90
2019-01-25T11:00:08.760Z,21.23
2019-01-25T11:02:49.654Z,22.23
2019-01-25T11:05:30.279Z,25.30
2019-01-25T11:08:11.259Z,27.03
2019-01-25T11:10:52.177Z,29.07
2019-01-25T11:13:33.105Z,29.40
2019-01-25T11:16:13.780Z,30.70
2019-01-25T11:18:54.176Z,31.20
2019-01-25T11:21:37.512Z,30.60
2019-01-25T11:24:16.801Z,29.83
2019-01-25T11:27:00.351Z,30.43
2019-01-25T11:29:40.225Z,29.87
2019-01-25T11:32:20.463Z,30.33
2019-01-25T11:35:01.252Z,29.60
2019-01-25T11:37:42.225Z,29.07
2019-01-25T11:40:23.041Z,30.67
2019-01-25T11:43:08.395Z,31.83
2019-01-25T11:45:54.397Z,32.53
2019-01-25T11:48:41.215Z,32.70
2019-01-25T11:51:29.137Z,31.23
2019-01-25T11:54:16.920Z,30.93
2019-01-25T11:57:05.571Z,30.33
2019-01-25T11:59:53.556Z,29.50
2019-01-25T12:02:41.601Z,27.70
2019-01-25T12:05:29.356Z,31.73
2019-01-25T12:08:17.139Z,30.70
2019-01-25T12:11:04.932Z,27.77
2019-01-25T12:13:52.690Z,30.30
2019-01-25T12:16:40.464Z,29.73
2019-01-25T12:19:28.484Z,29.43
2019-01-25T12:22:16.417Z,29.13
2019-01-25T12:25:24.909Z,30.53
2019-01-25T12:28:12.698Z,29.93
2019-01-25T12:31:00.468Z,29.47
2019-01-25T12:33:48.238Z,30.67
2019-01-25T12:36:36.040Z,29.97
2019-01-25T12:42:36.610Z,30.47
2019-01-25T12:45:50.092Z,31.17
2019-01-25T12:48:35.362Z,30.70
2019-01-25T12:51:23.121Z,32.50
2019-01-25T12:54:10.914Z,31.00
2019-01-25T12:56:58.713Z,31.67
2019-01-25T12:59:46.490Z,30.20
2019-01-25T13:02:34.247Z,30.90
2019-01-25T13:05:22.541Z,32.00
2019-01-25T13:08:10.343Z,34.07
2019-01-25T13:11:00.222Z,35.27
2019-01-25T13:13:31.647Z,34.93
2019-01-25T13:16:01.910Z,36.63
2019-01-25T13:18:50.002Z,37.77
2019-01-25T13:21:37.951Z,36.90
2019-01-25T13:24:25.694Z,38.03
2019-01-25T13:30:29.499Z,38.33
2019-01-25T13:33:10.467Z,39.23
2019-01-25T13:35:51.420Z,36.43
2019-01-25T13:38:32.259Z,37.87
2019-01-25T13:41:12.937Z,36.87
2019-01-25T13:43:53.471Z,37.17
2019-01-25T13:46:36.762Z,34.73
2019-01-25T13:49:17.397Z,34.37
2019-01-25T13:51:58.107Z,35.17
2019-01-25T13:54:41.978Z,35.03
2019-01-25T13:57:22.174Z,36.43
2019-01-25T14:00:03.179Z,36.30
2019-01-25T14:02:44.249Z,37.23
2019-01-25T14:05:24.849Z,35.97
2019-01-25T14:08:05.919Z,37.80
2019-01-25T14:10:49.876Z,37.47
2019-01-25T14:13:34.209Z,36.57
2019-01-25T14:16:13.624Z,36.80
2019-01-25T14:18:54.222Z,36.70
2019-01-25T14:21:34.833Z,35.57
2019-01-25T14:24:16.806Z,38.50
2019-01-25T14:26:57.219Z,37.90
2019-01-25T14:29:37.514Z,36.50
2019-01-25T14:32:18.033Z,37.77
2019-01-25T14:34:58.973Z,37.80
2019-01-25T14:37:39.960Z,38.20
2019-01-25T14:40:21.092Z,38.80
2019-01-25T14:43:02.317Z,40.47
2019-01-25T14:45:42.961Z,39.73
2019-01-25T14:48:23.772Z,40.20
2019-01-25T14:51:05.133Z,43.87
2019-01-25T14:53:33.999Z,42.20
2019-01-25T14:56:21.815Z,45.77
2019-01-25T14:59:09.945Z,45.90
2019-01-25T15:01:57.739Z,46.43
2019-01-25T15:04:45.618Z,45.33
2019-01-25T15:07:54.446Z,46.97
2019-01-25T15:10:35.317Z,43.50
2019-01-25T15:13:15.984Z,44.33
2019-01-25T15:15:56.821Z,45.73
2019-01-25T15:18:37.423Z,45.50
2019-01-25T15:21:18.415Z,45.20
2019-01-25T15:23:59.492Z,50.87
2019-01-25T15:26:40.765Z,43.73
2019-01-25T15:29:21.818Z,44.60
2019-01-25T15:32:02.391Z,44.30
2019-01-25T15:34:44.260Z,46.07
2019-01-25T15:37:12.730Z,46.30
2019-01-25T15:40:00.632Z,45.20
2019-01-25T15:42:29.076Z,46.80
2019-01-25T15:45:36.184Z,44.40
2019-01-25T15:48:24.210Z,42.20
2019-01-25T15:51:12.192Z,45.20
2019-01-25T15:54:00.298Z,46.63
2019-01-25T15:56:48.048Z,43.87
2019-01-25T15:59:35.836Z,43.23
2019-01-25T16:02:23.586Z,43.17
2019-01-25T16:10:46.244Z,37.53
2019-01-25T16:13:34.456Z,37.60
2019-01-25T16:16:02.975Z,36.80
2019-01-25T16:18:44.337Z,35.17
2019-01-25T16:21:27.970Z,35.37
2019-01-25T16:24:08.789Z,36.33
2019-01-25T16:29:34.229Z,36.17
2019-01-25T16:32:14.949Z,33.60
2019-01-25T16:34:57.441Z,33.37
2019-01-25T16:40:20.690Z,34.80
2019-01-25T16:43:01.177Z,34.57
2019-01-25T16:45:41.956Z,34.50
2019-01-25T16:48:22.724Z,35.47
2019-01-25T16:51:03.512Z,35.80
2019-01-25T16:53:44.373Z,36.03
2019-01-25T16:56:24.879Z,36.60
2019-01-25T16:59:05.668Z,39.00
2019-01-25T17:01:46.483Z,37.17
2019-01-25T17:04:14.990Z,35.83
2019-01-25T17:07:02.782Z,38.80
2019-01-25T17:09:50.932Z,37.10
2019-01-25T17:12:38.728Z,35.00
2019-01-25T17:15:26.746Z,35.20
2019-01-25T17:18:15.991Z,33.93
2019-01-25T17:21:03.964Z,37.43
2019-01-25T17:23:32.408Z,36.17
2019-01-25T17:26:20.184Z,36.10
2019-01-25T17:29:07.944Z,33.23
2019-01-25T17:31:55.688Z,35.20
2019-01-25T17:34:43.779Z,35.83
2019-01-25T17:37:31.546Z,35.23
2019-01-25T17:40:46.482Z,35.27
2019-01-25T17:43:29.790Z,33.93
2019-01-25T17:46:17.685Z,34.83
2019-01-25T17:52:00.281Z,35.00
2019-01-25T17:54:48.103Z,35.10
2019-01-25T17:57:35.875Z,32.70
2019-01-25T18:00:44.389Z,33.70
2019-01-25T18:03:32.131Z,34.37
2019-01-25T18:06:19.893Z,35.53
2019-01-25T18:09:08.074Z,34.50
2019-01-25T18:11:48.808Z,33.73
2019-01-25T18:14:29.649Z,34.03
2019-01-25T18:17:10.688Z,33.03
2019-01-25T18:19:51.576Z,34.57
2019-01-25T18:22:31.926Z,35.63
2019-01-25T18:25:12.592Z,33.17
2019-01-25T18:27:53.621Z,35.73
2019-01-25T18:30:34.742Z,33.43
2019-01-25T18:33:16.001Z,33.67
2019-01-25T18:35:56.932Z,34.03
2019-01-25T18:38:38.077Z,32.40
2019-01-25T18:41:18.428Z,34.40
2019-01-25T18:43:59.072Z,32.37
2019-01-25T18:46:40.132Z,33.73
2019-01-25T18:49:08.628Z,34.40
2019-01-25T18:51:56.385Z,33.70
2019-01-25T18:54:44.160Z,33.53
2019-01-25T18:57:32.153Z,33.27
2019-01-25T19:00:40.661Z,33.07
2019-01-25T19:03:28.407Z,34.13
2019-01-25T19:06:16.200Z,33.13
2019-01-25T19:09:24.664Z,34.67
2019-01-25T19:12:12.657Z,33.63
2019-01-25T19:14:41.160Z,36.57
2019-01-25T19:17:28.927Z,34.33
2019-01-25T19:20:17.069Z,33.70
2019-01-25T19:23:04.842Z,34.57
2019-01-25T19:25:52.617Z,34.13
2019-01-25T19:28:40.447Z,33.13
2019-01-25T19:31:28.187Z,36.97
2019-01-25T19:34:15.940Z,35.73
2019-01-25T19:37:03.739Z,34.00
2019-01-25T19:39:51.490Z,34.37
2019-01-25T19:42:39.318Z,33.33
2019-01-25T19:45:27.091Z,32.63
2019-01-25T19:48:14.864Z,32.10
2019-01-25T19:53:57.145Z,35.03
2019-01-25T19:56:44.928Z,35.20
2019-01-25T19:59:32.892Z,34.90
2019-01-25T20:02:21.042Z,34.03
2019-01-25T20:05:29.601Z,35.33
2019-01-25T20:08:17.437Z,34.70
2019-01-25T20:11:05.537Z,34.97
2019-01-25T20:13:45.892Z,34.97
2019-01-25T20:16:26.716Z,35.30
2019-01-25T20:19:08.930Z,36.37
2019-01-25T20:21:49.677Z,36.97
2019-01-25T20:24:30.791Z,35.57
2019-01-25T20:27:12.172Z,40.27
2019-01-25T20:29:52.828Z,37.23
2019-01-25T20:32:33.429Z,38.47
2019-01-25T20:35:14.478Z,38.47
2019-01-25T20:37:55.089Z,35.73
2019-01-25T20:40:35.677Z,38.87
2019-01-25T20:43:16.773Z,37.83
2019-01-25T20:45:57.959Z,40.47
2019-01-25T20:48:38.649Z,38.33
2019-01-25T20:51:19.465Z,39.17
2019-01-25T20:54:00.293Z,38.23
2019-01-25T20:56:41.444Z,40.20
2019-01-25T20:59:22.459Z,38.10
2019-01-25T21:02:03.350Z,41.10
2019-01-25T21:04:44.013Z,39.80
2019-01-25T21:07:24.656Z,39.50
2019-01-25T21:10:05.657Z,39.17
2019-01-25T21:12:46.789Z,40.20
2019-01-25T21:15:34.782Z,39.70
2019-01-25T21:18:10.190Z,38.97
2019-01-25T21:20:51.124Z,39.33
2019-01-25T21:23:31.656Z,37.87
2019-01-25T21:26:12.496Z,38.17
2019-01-25T21:28:53.124Z,38.23
2019-01-25T21:31:33.626Z,41.10
2019-01-25T21:34:14.271Z,39.03
2019-01-25T21:36:55.049Z,40.43
2019-01-25T21:39:35.722Z,40.17
2019-01-25T21:42:16.748Z,41.90
2019-01-25T21:44:57.455Z,41.10
2019-01-25T21:47:38.215Z,37.80
2019-01-25T21:50:19.159Z,38.83
2019-01-25T21:52:59.909Z,41.67
2019-01-25T21:55:41.233Z,38.97
2019-01-25T21:58:21.570Z,39.07
2019-01-25T22:01:02.239Z,39.97
2019-01-25T22:03:43.166Z,39.27
2019-01-25T22:06:24.437Z,38.03
2019-01-25T22:09:05.707Z,40.20
2019-01-25T22:11:46.362Z,37.43
2019-01-25T22:14:27.453Z,37.90
2019-01-25T22:17:08.218Z,38.13
2019-01-25T22:19:49.233Z,36.73
2019-01-25T22:22:30.281Z,40.67
2019-01-25T22:24:58.736Z,36.13
2019-01-25T22:27:47.393Z,37.17
2019-01-25T22:30:55.919Z,38.20
2019-01-25T22:33:43.678Z,38.23
2019-01-25T22:36:31.446Z,37.47
2019-01-25T22:39:19.200Z,38.70
2019-01-25T22:42:06.964Z,38.03
2019-01-25T22:44:54.768Z,35.37
2019-01-25T22:47:42.565Z,38.33
2019-01-25T22:50:51.045Z,38.13
2019-01-25T22:53:38.809Z,36.80
2019-01-25T22:56:26.685Z,36.77
2019-01-25T22:59:14.701Z,36.37
2019-01-25T23:02:02.542Z,37.27
2019-01-25T23:05:09.664Z,34.17
2019-01-25T23:07:57.433Z,36.87
2019-01-25T23:10:45.444Z,36.27
2019-01-25T23:13:26.497Z,35.63
2019-01-25T23:16:07.116Z,34.70
2019-01-25T23:18:47.985Z,35.80
2019-01-25T23:21:28.873Z,34.93
2019-01-25T23:24:09.598Z,35.63
2019-01-25T23:26:50.401Z,34.90
2019-01-25T23:29:31.451Z,35.53
2019-01-25T23:35:10.323Z,34.03
2019-01-25T23:37:50.876Z,34.17
2019-01-25T23:40:31.689Z,33.57
2019-01-25T23:43:12.380Z,33.20
2019-01-25T23:45:52.976Z,31.67
2019-01-25T23:48:33.931Z,32.73
2019-01-25T23:51:14.550Z,34.17
2019-01-25T23:53:55.579Z,31.67
2019-01-25T23:56:36.626Z,32.90
2019-01-25T23:59:17.356Z,31.53
